createdAt,value
2017-07-08T00:00:58.654Z,19.20
2017-07-08T00:03:27.737Z,20.30
2017-07-08T00:05:56.820Z,19.47
2017-07-08T00:08:25.900Z,20.33
2017-07-08T00:10:54.988Z,19.03
2017-07-08T00:13:24.048Z,20.70
2017-07-08T00:15:53.108Z,20.67
2017-07-08T00:18:22.178Z,20.73
2017-07-08T00:20:51.232Z,21.73
2017-07-08T00:23:20.340Z,20.80
2017-07-08T00:25:49.426Z,21.20
2017-07-08T00:28:18.484Z,21.53
2017-07-08T00:30:47.645Z,21.20
2017-07-08T00:33:16.691Z,20.87
2017-07-08T00:35:45.784Z,22.23
2017-07-08T00:38:14.847Z,22.53
2017-07-08T00:40:43.914Z,21.90
2017-07-08T00:43:13.022Z,22.43
2017-07-08T00:45:42.068Z,21.20
2017-07-08T00:48:11.174Z,21.30
2017-07-08T00:50:40.239Z,20.47
2017-07-08T00:53:09.310Z,22.50
2017-07-08T00:55:38.395Z,23.63
2017-07-08T00:58:07.474Z,24.07
2017-07-08T01:00:36.515Z,24.60
2017-07-08T01:03:05.597Z,24.27
2017-07-08T01:05:34.658Z,24.77
2017-07-08T01:08:03.724Z,24.20
2017-07-08T01:10:32.811Z,23.27
2017-07-08T01:13:01.943Z,24.23
2017-07-08T01:15:31.014Z,24.07
2017-07-08T01:18:00.092Z,23.60
2017-07-08T01:20:29.152Z,26.87
2017-07-08T01:22:58.246Z,24.67
2017-07-08T01:25:27.316Z,23.90
2017-07-08T01:27:56.384Z,24.37
2017-07-08T01:30:25.457Z,26.17
2017-07-08T01:32:54.516Z,24.03
2017-07-08T01:35:23.625Z,25.17
2017-07-08T01:37:52.697Z,26.60
2017-07-08T01:40:21.815Z,22.00
2017-07-08T01:42:51.136Z,26.07
2017-07-08T01:45:20.344Z,27.60
2017-07-08T01:47:49.412Z,25.40
2017-07-08T01:50:18.533Z,25.70
2017-07-08T01:52:47.614Z,26.40
2017-07-08T01:55:16.686Z,26.20
2017-07-08T01:57:45.761Z,24.90
2017-07-08T02:00:14.867Z,27.73
2017-07-08T02:02:43.907Z,26.30
2017-07-08T02:05:13.133Z,27.80
2017-07-08T02:07:42.216Z,29.17
2017-07-08T02:10:11.345Z,30.23
2017-07-08T02:12:40.401Z,31.27
2017-07-08T02:15:09.469Z,30.20
2017-07-08T02:17:38.537Z,28.10
2017-07-08T02:20:07.650Z,27.33
2017-07-08T02:22:36.696Z,28.40
2017-07-08T02:25:05.753Z,28.33
2017-07-08T02:27:34.830Z,26.67
2017-07-08T02:30:03.883Z,26.83
2017-07-08T02:32:33.014Z,27.10
2017-07-08T02:35:02.127Z,26.57
2017-07-08T02:37:31.168Z,28.40
2017-07-08T02:40:00.259Z,28.30
2017-07-08T02:42:29.336Z,28.23
2017-07-08T02:44:58.391Z,28.70
2017-07-08T02:47:27.483Z,27.23
2017-07-08T02:49:56.517Z,29.90
2017-07-08T02:52:25.608Z,29.10
2017-07-08T02:54:54.674Z,30.00
2017-07-08T02:57:23.769Z,31.60
2017-07-08T02:59:52.840Z,31.40
2017-07-08T03:02:22.125Z,32.20
2017-07-08T03:04:51.243Z,31.70
2017-07-08T03:07:20.329Z,33.50
2017-07-08T03:09:49.438Z,32.47
2017-07-08T03:12:18.506Z,32.77
2017-07-08T03:14:47.591Z,30.87
2017-07-08T03:17:16.655Z,34.00
2017-07-08T03:19:45.928Z,32.20
2017-07-08T03:22:15.023Z,31.97
2017-07-08T03:24:44.095Z,32.97
2017-07-08T03:27:13.190Z,32.70
2017-07-08T03:29:42.227Z,31.93
2017-07-08T03:32:11.295Z,33.60
2017-07-08T03:34:40.386Z,32.30
2017-07-08T03:37:09.440Z,32.27
2017-07-08T03:39:38.540Z,33.73
2017-07-08T03:42:07.605Z,30.60
2017-07-08T03:44:36.689Z,32.23
2017-07-08T03:47:05.739Z,33.30
2017-07-08T03:49:34.798Z,33.30
2017-07-08T03:52:03.904Z,33.70
2017-07-08T03:54:32.986Z,32.93
2017-07-08T03:57:02.048Z,35.57
2017-07-08T03:59:31.123Z,33.20
2017-07-08T04:02:00.175Z,31.90
2017-07-08T04:04:29.237Z,31.43
2017-07-08T04:06:58.312Z,29.63
2017-07-08T04:09:27.373Z,32.47
2017-07-08T04:11:57.064Z,31.47
2017-07-08T04:14:27.285Z,32.87
2017-07-08T04:16:57.976Z,32.70
2017-07-08T04:19:27.062Z,36.23
2017-07-08T04:21:56.125Z,36.47
2017-07-08T04:24:25.209Z,34.77
2017-07-08T04:26:54.304Z,34.90
2017-07-08T04:29:23.380Z,35.20
2017-07-08T04:31:52.455Z,40.83
2017-07-08T04:34:21.528Z,38.43
2017-07-08T04:36:50.588Z,38.77
2017-07-08T04:39:19.671Z,41.40
2017-07-08T04:41:48.753Z,41.50
2017-07-08T04:44:17.813Z,39.37
2017-07-08T04:46:46.915Z,40.40
2017-07-08T04:49:15.956Z,40.73
2017-07-08T04:51:45.039Z,41.57
2017-07-08T04:54:14.214Z,35.23
2017-07-08T04:56:44.153Z,38.13
2017-07-08T04:59:13.250Z,38.40
2017-07-08T05:01:42.305Z,40.20
2017-07-08T05:04:11.404Z,37.97
2017-07-08T05:06:40.487Z,40.20
2017-07-08T05:09:09.564Z,40.00
2017-07-08T05:11:38.655Z,41.43
2017-07-08T05:14:07.868Z,40.70
2017-07-08T05:16:36.942Z,40.80
2017-07-08T05:19:05.997Z,39.97
2017-07-08T05:21:35.105Z,41.73
2017-07-08T05:24:04.216Z,40.50
2017-07-08T05:26:33.325Z,38.77
2017-07-08T05:29:02.399Z,36.60
2017-07-08T05:31:31.460Z,35.80
2017-07-08T05:34:00.599Z,35.60
2017-07-08T05:36:29.634Z,36.30
2017-07-08T05:38:58.741Z,33.63
2017-07-08T05:41:27.834Z,33.07
2017-07-08T05:43:56.868Z,29.90
2017-07-08T05:46:25.941Z,32.47
2017-07-08T05:48:55.022Z,29.57
2017-07-08T05:51:24.093Z,29.83
2017-07-08T05:53:53.206Z,29.47
2017-07-08T05:56:22.283Z,30.43
2017-07-08T05:58:51.347Z,28.20
2017-07-08T06:01:20.413Z,27.93
2017-07-08T06:03:49.481Z,27.30
2017-07-08T06:06:18.799Z,28.53
2017-07-08T06:08:47.852Z,29.03
2017-07-08T06:11:16.959Z,25.60
2017-07-08T06:13:46.049Z,28.37
2017-07-08T06:16:15.358Z,24.70
2017-07-08T06:18:44.501Z,24.00
2017-07-08T06:21:13.593Z,22.97
2017-07-08T06:23:42.644Z,23.23
2017-07-08T06:26:11.793Z,22.47
2017-07-08T06:28:40.852Z,23.10
2017-07-08T06:31:09.916Z,21.67
2017-07-08T06:33:39.019Z,22.00
2017-07-08T06:36:08.154Z,22.67
2017-07-08T06:38:37.260Z,20.97
2017-07-08T06:41:06.466Z,21.60
2017-07-08T06:43:35.543Z,23.57
2017-07-08T06:46:04.605Z,23.00
2017-07-08T06:48:33.676Z,21.07
2017-07-08T06:51:02.774Z,21.27
2017-07-08T06:53:31.828Z,22.00
2017-07-08T06:56:00.900Z,20.73
2017-07-08T06:58:29.961Z,18.33
2017-07-08T07:00:59.012Z,19.00
2017-07-08T07:03:28.134Z,21.43
2017-07-08T07:05:57.202Z,20.97
2017-07-08T07:08:26.293Z,21.50
2017-07-08T07:10:55.343Z,22.57
2017-07-08T07:13:24.544Z,22.93
2017-07-08T07:15:53.713Z,24.30
2017-07-08T07:18:22.794Z,25.13
2017-07-08T07:20:51.865Z,25.37
2017-07-08T07:23:20.943Z,22.90
2017-07-08T07:25:50.007Z,24.90
2017-07-08T07:28:19.097Z,22.80
2017-07-08T07:30:48.165Z,23.50
2017-07-08T07:33:17.243Z,25.27
2017-07-08T07:35:46.317Z,28.70
2017-07-08T07:38:15.437Z,33.30
2017-07-08T07:40:44.512Z,32.50
2017-07-08T07:43:13.793Z,33.33
2017-07-08T07:45:42.872Z,32.20
2017-07-08T07:48:11.909Z,34.50
2017-07-08T07:50:40.981Z,31.60
2017-07-08T07:53:10.053Z,28.00
2017-07-08T07:55:39.149Z,35.37
2017-07-08T07:58:08.260Z,33.60
2017-07-08T08:00:37.316Z,29.70
2017-07-08T08:03:06.417Z,30.10
2017-07-08T08:05:35.453Z,28.70
2017-07-08T08:08:04.547Z,29.17
2017-07-08T08:10:33.619Z,29.57
2017-07-08T08:13:02.737Z,29.97
2017-07-08T08:15:31.802Z,29.57
2017-07-08T08:18:00.903Z,28.07
2017-07-08T08:20:29.972Z,26.60
2017-07-08T08:22:59.042Z,26.40
2017-07-08T08:25:28.148Z,24.10
2017-07-08T08:27:57.215Z,24.33
2017-07-08T08:30:26.297Z,25.93
2017-07-08T08:32:55.391Z,24.50
2017-07-08T08:35:24.444Z,22.10
2017-07-08T08:37:53.510Z,25.40
2017-07-08T08:40:22.586Z,23.27
2017-07-08T08:42:51.672Z,22.17
2017-07-08T08:45:20.733Z,21.30
2017-07-08T08:47:49.789Z,22.03
2017-07-08T08:50:18.888Z,22.10
2017-07-08T08:52:47.953Z,20.00
2017-07-08T08:55:17.071Z,18.63
2017-07-08T08:57:46.105Z,18.30
2017-07-08T09:00:15.192Z,19.50
2017-07-08T09:02:44.276Z,16.17
2017-07-08T09:05:13.376Z,14.73
2017-07-08T09:07:42.483Z,15.77
2017-07-08T09:10:12.702Z,17.00
2017-07-08T09:12:41.749Z,16.87
2017-07-08T09:15:10.861Z,16.27
2017-07-08T09:17:39.959Z,17.07
2017-07-08T09:20:09.051Z,15.97
2017-07-08T09:22:38.099Z,15.40
2017-07-08T09:25:07.179Z,16.63
2017-07-08T09:27:36.437Z,16.03
2017-07-08T09:30:05.493Z,14.80
2017-07-08T09:32:34.621Z,14.20
2017-07-08T09:35:03.687Z,13.40
2017-07-08T09:37:32.744Z,13.97
2017-07-08T09:40:01.857Z,13.60
2017-07-08T09:42:30.932Z,12.50
2017-07-08T09:45:00.085Z,10.87
2017-07-08T09:47:29.237Z,11.87
2017-07-08T09:49:58.305Z,12.10
2017-07-08T09:52:28.135Z,10.27
2017-07-08T09:54:57.189Z,9.63
2017-07-08T09:57:26.273Z,9.40
2017-07-08T09:59:55.320Z,10.40
2017-07-08T10:02:24.405Z,10.23
2017-07-08T10:04:53.879Z,12.40
2017-07-08T10:07:22.934Z,11.77
2017-07-08T10:09:52.024Z,11.30
2017-07-08T10:12:22.135Z,10.23
2017-07-08T10:14:51.220Z,11.10
2017-07-08T10:17:20.309Z,10.03
2017-07-08T10:19:49.377Z,10.50
2017-07-08T10:22:18.467Z,8.40
2017-07-08T10:24:47.540Z,7.87
2017-07-08T10:27:16.625Z,9.10
2017-07-08T10:29:45.697Z,8.40
2017-07-08T10:32:14.763Z,8.50
2017-07-08T10:34:43.858Z,7.67
2017-07-08T10:37:13.012Z,10.83
2017-07-08T10:39:42.063Z,7.63
2017-07-08T10:42:11.237Z,6.40
2017-07-08T10:44:40.290Z,7.83
2017-07-08T10:47:09.369Z,9.43
2017-07-08T10:49:38.436Z,7.77
2017-07-08T10:52:07.514Z,7.70
2017-07-08T10:54:36.649Z,7.53
2017-07-08T10:57:05.723Z,6.63
2017-07-08T10:59:34.767Z,9.37
2017-07-08T11:02:03.872Z,8.00
2017-07-08T11:04:32.912Z,7.37
2017-07-08T11:07:01.977Z,7.50
2017-07-08T11:09:31.061Z,7.10
2017-07-08T11:12:00.126Z,7.37
2017-07-08T11:14:29.192Z,7.00
2017-07-08T11:16:58.473Z,9.37
2017-07-08T11:19:27.536Z,8.77
2017-07-08T11:21:56.644Z,8.17
2017-07-08T11:24:25.688Z,6.57
2017-07-08T11:26:54.786Z,6.43
2017-07-08T11:29:23.844Z,5.90
2017-07-08T11:31:52.922Z,6.13
2017-07-08T11:34:22.001Z,5.47
2017-07-08T11:36:51.055Z,6.47
2017-07-08T11:42:37.976Z,6.13
2017-07-08T11:45:07.056Z,6.30
2017-07-08T11:47:36.089Z,7.80
2017-07-08T11:50:05.143Z,7.67
2017-07-08T11:52:34.387Z,7.90
2017-07-08T11:55:03.428Z,7.07
2017-07-08T11:57:32.546Z,8.43
2017-07-08T12:00:01.682Z,8.00
2017-07-08T12:02:30.747Z,7.20
2017-07-08T12:04:59.836Z,6.20
2017-07-08T12:07:28.927Z,7.90
2017-07-08T12:09:58.034Z,7.80
2017-07-08T12:12:27.072Z,6.60
2017-07-08T12:14:56.149Z,6.77
2017-07-08T12:17:25.216Z,7.17
2017-07-08T12:19:54.295Z,7.00
2017-07-08T12:22:23.413Z,6.13
2017-07-08T12:24:52.537Z,7.50
2017-07-08T12:27:21.584Z,7.20
2017-07-08T12:29:50.711Z,6.03
2017-07-08T12:32:19.791Z,7.60
2017-07-08T12:34:48.833Z,7.47
2017-07-08T12:37:17.885Z,6.17
2017-07-08T12:39:46.969Z,7.17
2017-07-08T12:42:16.051Z,6.67
2017-07-08T12:44:45.116Z,7.90
2017-07-08T12:47:14.221Z,7.40
2017-07-08T12:49:43.432Z,7.30
2017-07-08T12:52:12.517Z,7.60
2017-07-08T12:54:41.693Z,8.17
2017-07-08T12:57:10.748Z,7.30
2017-07-08T12:59:39.845Z,8.13
2017-07-08T13:02:08.932Z,7.10
2017-07-08T13:04:37.997Z,7.17
2017-07-08T13:07:07.049Z,7.30
2017-07-08T13:09:36.152Z,7.37
2017-07-08T13:12:05.239Z,7.30
2017-07-08T13:14:34.324Z,7.50
2017-07-08T13:17:03.414Z,6.80
2017-07-08T13:19:32.487Z,7.90
2017-07-08T13:22:01.628Z,7.27
2017-07-08T13:24:30.708Z,7.40
2017-07-08T13:26:59.787Z,7.17
2017-07-08T13:29:28.837Z,6.63
2017-07-08T13:31:57.917Z,7.20
2017-07-08T13:34:26.987Z,7.60
2017-07-08T13:36:56.037Z,7.87
2017-07-08T13:39:25.101Z,7.80
2017-07-08T13:41:54.162Z,7.87
2017-07-08T13:44:23.219Z,8.57
2017-07-08T13:46:52.321Z,7.07
2017-07-08T13:49:21.383Z,8.00
2017-07-08T13:51:50.427Z,7.83
2017-07-08T13:54:19.464Z,8.93
2017-07-08T13:56:48.544Z,8.40
2017-07-08T13:59:17.596Z,7.80
2017-07-08T14:01:46.672Z,9.17
2017-07-08T14:04:15.732Z,8.93
2017-07-08T14:06:44.808Z,7.50
2017-07-08T14:09:13.880Z,8.30
2017-07-08T14:11:42.983Z,8.60
2017-07-08T14:14:12.061Z,8.53
2017-07-08T14:16:41.139Z,8.40
2017-07-08T14:19:10.706Z,9.03
2017-07-08T14:21:39.978Z,8.03
2017-07-08T14:24:09.277Z,10.30
2017-07-08T14:26:38.524Z,10.03
2017-07-08T14:29:07.747Z,10.30
2017-07-08T14:31:36.831Z,8.60
2017-07-08T14:34:05.989Z,9.07
2017-07-08T14:36:35.037Z,9.00
2017-07-08T14:39:04.136Z,9.63
2017-07-08T14:41:33.223Z,8.97
2017-07-08T14:44:02.275Z,10.47
2017-07-08T14:46:31.333Z,10.47
2017-07-08T14:49:00.776Z,10.43
2017-07-08T14:51:29.850Z,11.53
2017-07-08T14:53:58.931Z,10.30
2017-07-08T14:56:28.004Z,11.40
2017-07-08T14:58:57.117Z,12.17
2017-07-08T15:01:26.196Z,10.20
2017-07-08T15:03:55.324Z,10.57
2017-07-08T15:06:24.419Z,10.50
2017-07-08T15:08:53.476Z,12.00
2017-07-08T15:11:22.562Z,10.47
2017-07-08T15:13:52.509Z,12.30
2017-07-08T15:16:21.612Z,10.97
2017-07-08T15:18:50.692Z,11.10
2017-07-08T15:21:19.780Z,11.23
2017-07-08T15:23:48.847Z,11.37
2017-07-08T15:26:17.910Z,11.23
2017-07-08T15:28:46.999Z,11.30
2017-07-08T15:31:16.074Z,10.30
2017-07-08T15:33:45.121Z,9.13
2017-07-08T15:36:14.188Z,10.57
2017-07-08T15:38:43.300Z,9.70
2017-07-08T15:41:12.388Z,10.93
2017-07-08T15:43:41.480Z,10.80
2017-07-08T15:46:10.565Z,10.50
2017-07-08T15:48:39.617Z,8.90
2017-07-08T15:51:08.679Z,9.73
2017-07-08T15:53:37.757Z,9.40
2017-07-08T15:56:06.821Z,9.90
2017-07-08T15:58:35.929Z,9.73
2017-07-08T16:01:04.987Z,9.77
2017-07-08T16:03:34.083Z,10.73
2017-07-08T16:06:03.227Z,11.43
2017-07-08T16:08:32.287Z,11.10
2017-07-08T16:11:01.358Z,12.97
2017-07-08T16:13:30.438Z,11.03
2017-07-08T16:15:59.489Z,10.20
2017-07-08T16:18:28.560Z,12.23
2017-07-08T16:20:57.621Z,30.83
2017-07-08T16:23:26.707Z,13.70
2017-07-08T16:25:55.789Z,11.70
2017-07-08T16:28:24.850Z,12.00
2017-07-08T16:30:53.930Z,12.20
2017-07-08T16:33:23.004Z,12.43
2017-07-08T16:35:52.114Z,12.60
2017-07-08T16:38:21.160Z,10.93
2017-07-08T16:40:50.416Z,12.30
2017-07-08T16:43:19.640Z,13.87
2017-07-08T16:45:48.721Z,13.03
2017-07-08T16:48:17.833Z,12.97
2017-07-08T16:50:46.924Z,14.03
2017-07-08T16:53:16.053Z,13.00
2017-07-08T16:55:45.127Z,15.20
2017-07-08T16:58:14.191Z,15.63
2017-07-08T17:00:43.333Z,12.33
2017-07-08T17:03:12.405Z,10.43
2017-07-08T17:05:41.474Z,10.70
2017-07-08T17:08:10.704Z,14.50
2017-07-08T17:10:39.794Z,10.70
2017-07-08T17:13:09.198Z,10.33
2017-07-08T17:15:38.298Z,10.67
2017-07-08T17:18:07.395Z,10.23
2017-07-08T17:20:36.460Z,9.97
2017-07-08T17:23:05.559Z,9.97
2017-07-08T17:25:34.649Z,11.00
2017-07-08T17:28:03.744Z,10.77
2017-07-08T17:30:32.795Z,13.53
2017-07-08T17:33:01.906Z,11.87
2017-07-08T17:35:31.002Z,10.63
2017-07-08T17:38:00.128Z,30.57
2017-07-08T17:40:29.357Z,26.30
2017-07-08T17:42:58.459Z,10.00
2017-07-08T17:45:27.529Z,8.53
2017-07-08T17:47:56.856Z,8.40
2017-07-08T17:50:25.940Z,8.27
2017-07-08T17:52:55.033Z,7.30
2017-07-08T17:55:24.048Z,7.47
2017-07-08T17:57:53.119Z,6.53
2017-07-08T18:00:22.186Z,7.67
2017-07-08T18:02:51.234Z,8.93
2017-07-08T18:05:20.345Z,6.37
2017-07-08T18:07:49.408Z,7.67
2017-07-08T18:10:18.512Z,6.80
2017-07-08T18:12:47.580Z,7.40
2017-07-08T18:15:16.666Z,6.70
2017-07-08T18:17:45.730Z,6.17
2017-07-08T18:20:14.789Z,8.10
2017-07-08T18:22:43.854Z,7.30
2017-07-08T18:25:12.910Z,6.17
2017-07-08T18:27:41.996Z,6.60
2017-07-08T18:30:11.165Z,7.60
2017-07-08T18:32:40.244Z,6.80
2017-07-08T18:35:09.338Z,8.20
2017-07-08T18:37:38.404Z,5.87
2017-07-08T18:40:07.742Z,6.73
2017-07-08T18:42:36.804Z,5.60
2017-07-08T18:45:05.887Z,5.87
2017-07-08T18:47:34.936Z,6.10
2017-07-08T18:50:04.015Z,6.00
2017-07-08T18:52:33.064Z,6.07
2017-07-08T18:55:02.173Z,5.47
2017-07-08T18:57:31.201Z,5.60
2017-07-08T19:00:00.252Z,6.50
2017-07-08T19:02:29.323Z,6.40
2017-07-08T19:04:58.382Z,6.50
2017-07-08T19:07:27.444Z,5.83
2017-07-08T19:09:56.521Z,6.30
2017-07-08T19:12:25.590Z,6.40
2017-07-08T19:14:54.674Z,6.90
2017-07-08T19:17:23.715Z,7.00
2017-07-08T19:19:52.788Z,6.97
2017-07-08T19:22:21.893Z,7.10
2017-07-08T19:24:50.974Z,6.80
2017-07-08T19:27:20.016Z,6.70
2017-07-08T19:29:49.127Z,8.87
2017-07-08T19:32:18.335Z,10.70
2017-07-08T19:34:47.386Z,8.87
2017-07-08T19:37:16.520Z,10.23
2017-07-08T19:39:45.826Z,9.40
2017-07-08T19:42:14.891Z,9.30
2017-07-08T19:44:43.964Z,9.90
2017-07-08T19:47:13.022Z,10.20
2017-07-08T19:49:42.370Z,11.20
2017-07-08T19:52:11.434Z,11.03
2017-07-08T19:54:40.497Z,10.93
2017-07-08T19:57:09.578Z,11.53
2017-07-08T19:59:38.682Z,11.33
2017-07-08T20:02:07.789Z,12.70
2017-07-08T20:04:36.885Z,11.80
2017-07-08T20:07:05.976Z,11.47
2017-07-08T20:09:35.083Z,12.50
2017-07-08T20:12:04.168Z,13.37
2017-07-08T20:14:33.267Z,12.43
2017-07-08T20:17:02.340Z,12.67
2017-07-08T20:19:31.468Z,11.90
2017-07-08T20:22:00.548Z,12.97
2017-07-08T20:24:29.601Z,12.60
2017-07-08T20:26:58.666Z,12.40
2017-07-08T20:29:27.752Z,12.43
2017-07-08T20:31:56.833Z,13.27
2017-07-08T20:34:25.872Z,14.67
2017-07-08T20:36:54.952Z,14.60
2017-07-08T20:39:24.025Z,13.53
2017-07-08T20:41:53.118Z,14.33
2017-07-08T20:44:22.200Z,13.80
2017-07-08T20:46:51.261Z,14.97
2017-07-08T20:49:20.347Z,14.10
2017-07-08T20:51:49.425Z,14.77
2017-07-08T20:54:18.494Z,16.20
2017-07-08T20:56:47.564Z,14.93
2017-07-08T20:59:16.629Z,14.07
2017-07-08T21:01:45.724Z,14.70
2017-07-08T21:04:14.779Z,14.03
2017-07-08T21:06:44.119Z,15.40
2017-07-08T21:09:13.212Z,15.00
2017-07-08T21:11:42.345Z,16.13
2017-07-08T21:14:11.460Z,16.40
2017-07-08T21:16:40.534Z,16.03
2017-07-08T21:19:09.659Z,16.57
2017-07-08T21:21:38.708Z,15.80
2017-07-08T21:24:07.884Z,15.87
2017-07-08T21:26:36.984Z,15.07
2017-07-08T21:29:06.076Z,14.70
2017-07-08T21:31:35.148Z,15.20
2017-07-08T21:34:04.245Z,15.37
2017-07-08T21:36:33.351Z,16.07
2017-07-08T21:39:02.457Z,15.13
2017-07-08T21:41:31.517Z,15.80
2017-07-08T21:44:00.607Z,16.00
2017-07-08T21:46:29.690Z,16.50
2017-07-08T21:48:58.744Z,17.70
2017-07-08T21:51:27.937Z,17.67
2017-07-08T21:53:57.009Z,17.60
2017-07-08T21:56:26.108Z,15.73
2017-07-08T21:58:55.179Z,17.40
2017-07-08T22:01:24.476Z,18.17
2017-07-08T22:03:53.530Z,18.60
2017-07-08T22:06:22.598Z,17.63
2017-07-08T22:08:51.695Z,18.17
2017-07-08T22:11:20.764Z,17.97
2017-07-08T22:13:51.023Z,18.43
2017-07-08T22:16:20.106Z,18.53
2017-07-08T22:18:49.188Z,16.23
2017-07-08T22:21:18.410Z,18.70
2017-07-08T22:23:47.488Z,18.00
2017-07-08T22:26:16.579Z,19.53
2017-07-08T22:28:45.649Z,18.20
2017-07-08T22:31:14.746Z,18.00
2017-07-08T22:33:43.817Z,18.83
2017-07-08T22:36:12.882Z,18.23
2017-07-08T22:38:41.966Z,18.57
2017-07-08T22:41:11.049Z,17.20
2017-07-08T22:43:40.133Z,18.17
2017-07-08T22:46:09.244Z,17.53
2017-07-08T22:48:38.512Z,17.00
2017-07-08T22:51:07.622Z,16.83
2017-07-08T22:53:36.705Z,15.93
2017-07-08T22:56:05.807Z,16.90
2017-07-08T22:58:34.861Z,18.23
2017-07-08T23:01:03.978Z,19.43
2017-07-08T23:03:33.021Z,19.40
2017-07-08T23:06:02.136Z,16.93
2017-07-08T23:08:31.209Z,17.00
2017-07-08T23:11:00.304Z,17.27
2017-07-08T23:13:29.356Z,19.13
2017-07-08T23:15:58.441Z,17.47
2017-07-08T23:18:27.543Z,18.43
2017-07-08T23:20:56.642Z,18.10
2017-07-08T23:23:25.724Z,19.20
2017-07-08T23:25:54.802Z,18.00
2017-07-08T23:28:23.879Z,18.47
2017-07-08T23:30:52.937Z,18.47
2017-07-08T23:33:22.056Z,18.03
2017-07-08T23:35:51.192Z,18.80
2017-07-08T23:38:20.244Z,18.33
2017-07-08T23:40:49.316Z,19.10
2017-07-08T23:43:18.447Z,19.00
2017-07-08T23:45:47.529Z,18.87
2017-07-08T23:48:16.849Z,18.10
2017-07-08T23:50:45.913Z,18.90
2017-07-08T23:53:15.011Z,17.20
2017-07-08T23:55:44.072Z,17.50
2017-07-08T23:58:13.224Z,19.10
